createdAt,value
2022-12-16T00:01:20.160Z,57.65
2022-12-16T00:03:54.941Z,57.60
2022-12-16T00:06:26.205Z,58.42
2022-12-16T00:08:55.044Z,58.32
2022-12-16T00:11:23.648Z,58.61
2022-12-16T00:13:52.178Z,58.68
2022-12-16T00:16:22.366Z,58.51
2022-12-16T00:18:51.918Z,58.63
2022-12-16T00:21:21.283Z,58.42
2022-12-16T00:23:50.070Z,58.20
2022-12-16T00:26:18.510Z,58.30
2022-12-16T00:28:46.891Z,58.09
2022-12-16T00:31:15.852Z,58.16
2022-12-16T00:33:44.230Z,58.31
2022-12-16T00:36:12.651Z,58.21
2022-12-16T00:38:40.969Z,58.15
2022-12-16T00:41:10.503Z,58.68
2022-12-16T00:43:38.881Z,58.74
2022-12-16T00:46:07.568Z,58.54
2022-12-16T00:48:36.122Z,59.12
2022-12-16T00:51:04.487Z,59.44
2022-12-16T00:53:33.154Z,59.65
2022-12-16T00:56:10.527Z,59.58
2022-12-16T00:58:39.255Z,60.11
2022-12-16T01:01:10.041Z,59.97
2022-12-16T01:03:39.950Z,60.28
2022-12-16T01:06:19.066Z,60.43
2022-12-16T01:08:50.686Z,60.99
2022-12-16T01:11:21.696Z,61.34
2022-12-16T01:13:55.132Z,61.55
2022-12-16T01:16:24.091Z,61.65
2022-12-16T01:18:52.637Z,61.78
2022-12-16T01:21:21.006Z,61.55
2022-12-16T01:23:49.901Z,61.80
2022-12-16T01:26:19.912Z,61.69
2022-12-16T01:28:50.496Z,62.38
2022-12-16T01:31:20.819Z,62.28
2022-12-16T01:33:49.366Z,62.15
2022-12-16T01:36:18.742Z,62.49
2022-12-16T01:38:48.722Z,62.77
2022-12-16T01:41:21.142Z,62.62
2022-12-16T01:43:49.416Z,62.44
2022-12-16T01:46:26.210Z,62.67
2022-12-16T01:49:27.670Z,62.71
2022-12-16T01:52:01.301Z,62.97
2022-12-16T01:54:44.662Z,62.88
2022-12-16T01:57:23.387Z,63.11
2022-12-16T01:59:55.201Z,63.21
2022-12-16T02:02:25.167Z,63.48
2022-12-16T02:05:12.016Z,63.67
2022-12-16T02:07:40.442Z,63.44
2022-12-16T02:10:09.610Z,64.09
2022-12-16T02:12:44.023Z,64.02
2022-12-16T02:15:21.442Z,64.25
2022-12-16T02:17:58.583Z,64.19
2022-12-16T02:20:38.886Z,64.31
2022-12-16T02:23:43.860Z,64.57
2022-12-16T02:26:42.263Z,64.68
2022-12-16T02:29:40.942Z,64.63
2022-12-16T02:32:37.614Z,64.87
2022-12-16T02:35:12.016Z,64.82
2022-12-16T02:37:54.734Z,65.18
2022-12-16T02:40:37.364Z,64.94
2022-12-16T02:43:13.777Z,65.29
2022-12-16T02:45:43.379Z,65.29
2022-12-16T02:48:12.821Z,65.48
2022-12-16T02:50:53.612Z,65.75
2022-12-16T02:53:23.641Z,65.74
2022-12-16T02:56:04.967Z,65.74
2022-12-16T02:59:08.432Z,66.01
2022-12-16T03:01:38.559Z,65.66
2022-12-16T03:04:16.209Z,65.96
2022-12-16T03:06:49.081Z,66.30
2022-12-16T03:09:24.601Z,65.94
2022-12-16T03:11:55.876Z,66.29
2022-12-16T03:14:28.966Z,66.35
2022-12-16T03:16:58.511Z,66.41
2022-12-16T03:19:29.085Z,66.19
2022-12-16T03:22:10.548Z,66.59
2022-12-16T03:24:40.492Z,66.07
2022-12-16T03:27:23.373Z,66.52
2022-12-16T03:30:21.306Z,66.56
2022-12-16T03:33:09.127Z,66.75
2022-12-16T03:35:49.422Z,66.74
2022-12-16T03:38:19.341Z,66.48
2022-12-16T03:40:47.697Z,66.91
2022-12-16T03:43:17.449Z,67.10
2022-12-16T03:45:47.277Z,66.77
2022-12-16T03:48:17.812Z,66.79
2022-12-16T03:50:46.197Z,66.96
2022-12-16T03:53:14.571Z,67.16
2022-12-16T03:55:43.001Z,66.75
2022-12-16T03:58:11.500Z,66.82
2022-12-16T04:00:39.968Z,67.28
2022-12-16T04:03:08.433Z,67.37
2022-12-16T04:05:37.321Z,67.54
2022-12-16T04:08:06.007Z,67.39
2022-12-16T04:10:52.790Z,67.24
2022-12-16T04:13:39.364Z,67.95
2022-12-16T04:16:28.070Z,67.47
2022-12-16T04:19:14.863Z,67.23
2022-12-16T04:22:01.901Z,67.74
2022-12-16T04:24:32.006Z,67.81
2022-12-16T04:27:19.214Z,67.69
2022-12-16T04:30:06.062Z,67.41
2022-12-16T04:32:54.324Z,67.80
2022-12-16T04:35:41.133Z,68.08
2022-12-16T04:38:27.856Z,67.76
2022-12-16T04:41:14.531Z,67.88
2022-12-16T04:44:01.466Z,68.03
2022-12-16T04:46:48.433Z,68.25
2022-12-16T04:49:35.487Z,67.97
2022-12-16T04:52:22.887Z,67.86
2022-12-16T04:55:09.776Z,68.16
2022-12-16T04:57:56.595Z,68.36
2022-12-16T05:00:43.696Z,67.90
2022-12-16T05:03:31.790Z,68.06
2022-12-16T05:06:18.566Z,68.28
2022-12-16T05:09:05.083Z,68.32
2022-12-16T05:11:52.006Z,68.03
2022-12-16T05:14:38.908Z,68.23
2022-12-16T05:17:25.365Z,68.22
2022-12-16T05:20:11.916Z,68.55
2022-12-16T05:22:58.921Z,68.00
2022-12-16T05:25:45.621Z,68.89
2022-12-16T05:28:32.507Z,68.85
2022-12-16T05:31:19.152Z,68.47
2022-12-16T05:34:06.201Z,68.74
2022-12-16T05:36:52.770Z,68.63
2022-12-16T05:39:39.096Z,68.67
2022-12-16T05:42:25.626Z,68.56
2022-12-16T05:45:12.206Z,68.45
2022-12-16T05:47:59.825Z,68.41
2022-12-16T05:50:46.538Z,68.23
2022-12-16T05:53:33.640Z,68.60
2022-12-16T05:56:20.636Z,68.54
2022-12-16T05:59:07.340Z,68.23
2022-12-16T06:01:54.417Z,68.68
2022-12-16T06:04:40.995Z,68.54
2022-12-16T06:07:27.594Z,68.08
2022-12-16T06:10:13.905Z,68.63
2022-12-16T06:13:00.550Z,68.60
2022-12-16T06:15:47.461Z,68.40
2022-12-16T06:18:34.242Z,68.48
2022-12-16T06:21:21.256Z,69.03
2022-12-16T06:24:08.290Z,69.25
2022-12-16T06:26:55.071Z,69.36
2022-12-16T06:29:41.563Z,68.94
2022-12-16T06:32:28.146Z,69.45
2022-12-16T06:35:14.860Z,68.70
2022-12-16T06:38:01.764Z,68.75
2022-12-16T06:40:48.267Z,69.38
2022-12-16T06:43:35.744Z,69.52
2022-12-16T06:46:22.938Z,69.22
2022-12-16T06:49:09.782Z,69.48
2022-12-16T06:51:56.642Z,69.32
2022-12-16T06:54:43.161Z,69.33
2022-12-16T06:57:29.845Z,69.49
2022-12-16T07:00:16.341Z,68.84
2022-12-16T07:03:03.201Z,69.18
2022-12-16T07:05:50.091Z,68.85
2022-12-16T07:08:36.597Z,69.15
2022-12-16T07:11:23.046Z,69.29
2022-12-16T07:14:09.615Z,68.79
2022-12-16T07:16:56.144Z,69.58
2022-12-16T07:19:43.031Z,69.71
2022-12-16T07:22:29.520Z,69.01
2022-12-16T07:25:15.886Z,69.21
2022-12-16T07:28:08.308Z,69.93
2022-12-16T07:30:59.053Z,69.98
2022-12-16T07:33:45.730Z,69.51
2022-12-16T07:36:32.654Z,69.56
2022-12-16T07:39:19.201Z,69.32
2022-12-16T07:42:05.702Z,69.57
2022-12-16T07:44:52.326Z,69.24
2022-12-16T07:47:39.126Z,69.10
2022-12-16T07:50:26.201Z,69.15
2022-12-16T07:53:19.641Z,69.06
2022-12-16T07:56:06.569Z,69.78
2022-12-16T07:58:53.285Z,69.54
2022-12-16T08:01:42.191Z,70.39
2022-12-16T08:04:29.125Z,69.71
2022-12-16T08:07:15.478Z,69.58
2022-12-16T08:10:02.021Z,69.92
2022-12-16T08:12:48.864Z,69.63
2022-12-16T08:15:35.556Z,69.41
2022-12-16T08:18:22.576Z,69.66
2022-12-16T08:21:09.128Z,70.29
2022-12-16T08:23:56.006Z,69.95
2022-12-16T08:26:42.769Z,69.67
2022-12-16T08:29:46.136Z,70.45
2022-12-16T08:32:34.076Z,69.63
2022-12-16T08:35:21.251Z,69.73
2022-12-16T08:38:13.695Z,70.19
2022-12-16T08:41:02.166Z,70.38
2022-12-16T08:43:53.930Z,70.17
2022-12-16T08:46:41.473Z,69.89
2022-12-16T08:49:28.464Z,70.42
2022-12-16T08:52:15.041Z,70.03
2022-12-16T08:55:01.772Z,69.79
2022-12-16T08:57:48.505Z,70.14
2022-12-16T09:00:43.527Z,70.22
2022-12-16T09:03:30.662Z,70.36
2022-12-16T09:06:20.487Z,70.52
2022-12-16T09:09:07.209Z,70.07
2022-12-16T09:11:53.743Z,70.53
2022-12-16T09:14:40.769Z,70.41
2022-12-16T09:17:27.463Z,70.49
2022-12-16T09:20:14.083Z,69.84
2022-12-16T09:23:00.921Z,69.99
2022-12-16T09:25:47.687Z,69.85
2022-12-16T09:28:34.408Z,70.55
2022-12-16T09:31:21.374Z,70.62
2022-12-16T09:34:07.922Z,69.85
2022-12-16T09:36:54.792Z,70.15
2022-12-16T09:39:42.568Z,70.06
2022-12-16T09:43:09.403Z,69.94
2022-12-16T09:46:22.626Z,69.92
2022-12-16T09:49:54.572Z,70.16
2022-12-16T09:52:43.050Z,70.13
2022-12-16T09:55:51.392Z,71.09
2022-12-16T09:58:42.287Z,70.48
2022-12-16T10:01:32.448Z,70.67
2022-12-16T10:04:19.407Z,70.66
2022-12-16T10:07:12.281Z,70.28
2022-12-16T10:10:41.450Z,70.50
2022-12-16T10:13:52.012Z,70.12
2022-12-16T10:17:07.220Z,70.47
2022-12-16T10:20:15.047Z,70.59
2022-12-16T10:23:25.104Z,70.92
2022-12-16T10:26:19.654Z,71.17
2022-12-16T10:29:08.742Z,70.39
2022-12-16T10:31:56.803Z,70.24
2022-12-16T10:34:49.743Z,70.37
2022-12-16T10:37:44.807Z,70.58
2022-12-16T10:40:36.966Z,70.73
2022-12-16T10:44:02.571Z,71.07
2022-12-16T10:46:53.826Z,71.25
2022-12-16T10:49:41.122Z,70.83
2022-12-16T10:52:33.143Z,70.61
2022-12-16T10:55:32.488Z,70.67
2022-12-16T10:58:45.759Z,71.27
2022-12-16T11:01:47.176Z,70.94
2022-12-16T11:04:51.492Z,71.03
2022-12-16T11:07:52.161Z,70.83
2022-12-16T11:10:49.291Z,71.30
2022-12-16T11:13:44.447Z,70.72
2022-12-16T11:16:41.211Z,71.09
2022-12-16T11:19:42.369Z,70.70
2022-12-16T11:22:41.603Z,71.33
2022-12-16T11:25:40.651Z,71.05
2022-12-16T11:28:37.936Z,70.87
2022-12-16T11:31:35.973Z,71.35
2022-12-16T11:34:23.596Z,71.29
2022-12-16T11:37:11.538Z,70.90
2022-12-16T11:40:00.007Z,70.99
2022-12-16T11:42:51.691Z,70.78
2022-12-16T11:45:40.572Z,70.92
2022-12-16T11:49:01.928Z,70.73
2022-12-16T11:52:21.117Z,71.12
2022-12-16T11:56:04.829Z,71.29
2022-12-16T11:59:07.322Z,71.12
2022-12-16T12:02:06.426Z,71.28
2022-12-16T12:04:53.126Z,71.00
2022-12-16T12:07:46.396Z,70.90
2022-12-16T12:10:47.687Z,71.39
2022-12-16T12:14:22.432Z,71.19
2022-12-16T12:17:25.856Z,71.05
2022-12-16T12:20:35.848Z,71.08
2022-12-16T12:23:26.893Z,71.15
2022-12-16T12:26:47.519Z,71.04
2022-12-16T12:29:40.119Z,71.16
2022-12-16T12:32:33.453Z,71.34
2022-12-16T12:35:55.823Z,70.89
2022-12-16T12:39:00.962Z,71.49
2022-12-16T12:41:55.209Z,71.39
2022-12-16T12:45:00.002Z,71.85
2022-12-16T12:47:49.285Z,71.59
2022-12-16T12:50:55.847Z,71.42
2022-12-16T12:54:03.527Z,71.24
2022-12-16T12:57:09.215Z,71.42
2022-12-16T13:00:13.734Z,70.92
2022-12-16T13:03:35.873Z,70.87
2022-12-16T13:06:23.685Z,71.52
2022-12-16T13:09:10.407Z,71.65
2022-12-16T13:11:58.562Z,71.21
2022-12-16T13:14:58.891Z,71.02
2022-12-16T13:17:45.616Z,71.26
2022-12-16T13:20:53.743Z,71.52
2022-12-16T13:24:00.971Z,71.80
2022-12-16T13:26:50.907Z,71.83
2022-12-16T13:29:44.332Z,71.64
2022-12-16T13:32:46.406Z,71.41
2022-12-16T13:35:33.132Z,71.27
2022-12-16T13:38:37.936Z,71.59
2022-12-16T13:41:45.921Z,71.12
2022-12-16T13:45:01.423Z,70.98
2022-12-16T13:47:59.862Z,71.29
2022-12-16T13:51:18.880Z,71.52
2022-12-16T13:54:12.967Z,71.65
2022-12-16T13:57:06.092Z,71.08
2022-12-16T13:59:56.956Z,71.71
2022-12-16T14:02:59.790Z,71.23
2022-12-16T14:05:53.781Z,71.40
2022-12-16T14:08:44.216Z,71.20
2022-12-16T14:12:05.281Z,71.47
2022-12-16T14:15:08.024Z,71.58
2022-12-16T14:18:07.686Z,71.74
2022-12-16T14:21:15.371Z,71.46
2022-12-16T14:24:22.517Z,71.42
2022-12-16T14:27:10.450Z,71.62
2022-12-16T14:29:58.542Z,71.66
2022-12-16T14:32:54.842Z,71.75
2022-12-16T14:35:44.826Z,71.61
2022-12-16T14:38:47.066Z,71.37
2022-12-16T14:41:37.445Z,71.77
2022-12-16T14:44:35.526Z,71.41
2022-12-16T14:47:22.701Z,71.49
2022-12-16T14:50:12.606Z,71.35
2022-12-16T14:53:00.005Z,71.61
2022-12-16T14:55:50.091Z,71.73
2022-12-16T14:58:42.574Z,71.97
2022-12-16T15:01:38.971Z,71.81
2022-12-16T15:04:39.026Z,71.20
2022-12-16T15:07:32.761Z,71.83
2022-12-16T15:10:20.490Z,71.45
2022-12-16T15:13:09.201Z,71.73
2022-12-16T15:16:05.767Z,71.84
2022-12-16T15:18:58.122Z,71.17
2022-12-16T15:21:45.138Z,71.68
2022-12-16T15:24:38.726Z,71.40
2022-12-16T15:27:40.005Z,71.40
2022-12-16T15:30:51.755Z,71.49
2022-12-16T15:33:41.740Z,71.70
2022-12-16T15:36:44.821Z,71.44
2022-12-16T15:39:55.967Z,71.63
2022-12-16T15:42:49.323Z,71.89
2022-12-16T15:45:46.572Z,72.11
2022-12-16T15:48:46.886Z,72.34
2022-12-16T15:51:52.494Z,71.73
2022-12-16T15:54:42.018Z,71.64
2022-12-16T15:57:55.382Z,71.89
2022-12-16T16:00:47.642Z,71.96
2022-12-16T16:03:49.349Z,71.45
2022-12-16T16:06:44.501Z,71.33
2022-12-16T16:09:48.001Z,71.93
2022-12-16T16:12:37.452Z,71.68
2022-12-16T16:15:26.971Z,71.90
2022-12-16T16:18:23.595Z,72.03
2022-12-16T16:21:11.225Z,72.26
2022-12-16T16:24:17.692Z,72.22
2022-12-16T16:27:04.399Z,72.25
2022-12-16T16:29:51.000Z,72.19
2022-12-16T16:32:37.761Z,72.21
2022-12-16T16:35:24.756Z,71.83
2022-12-16T16:38:14.201Z,72.40
2022-12-16T16:41:05.439Z,72.53
2022-12-16T16:43:52.027Z,72.12
2022-12-16T16:46:50.515Z,72.31
2022-12-16T16:49:43.843Z,72.36
2022-12-16T16:52:50.564Z,72.54
2022-12-16T16:55:42.065Z,72.11
2022-12-16T16:58:40.979Z,72.80
2022-12-16T17:01:32.514Z,72.68
2022-12-16T17:04:19.959Z,72.75
2022-12-16T17:07:07.051Z,72.24
2022-12-16T17:09:53.772Z,72.54
2022-12-16T17:12:45.286Z,72.35
2022-12-16T17:15:44.546Z,73.02
2022-12-16T17:18:31.537Z,72.49
2022-12-16T17:21:18.059Z,72.87
2022-12-16T17:24:05.125Z,72.20
2022-12-16T17:26:54.215Z,72.59
2022-12-16T17:29:43.131Z,72.04
2022-12-16T17:32:30.606Z,72.38
2022-12-16T17:35:18.249Z,72.01
2022-12-16T17:38:19.001Z,72.41
2022-12-16T17:41:11.847Z,72.03
2022-12-16T17:43:58.239Z,71.39
2022-12-16T17:46:46.110Z,71.62
2022-12-16T17:49:32.985Z,71.99
2022-12-16T17:52:19.525Z,70.94
2022-12-16T17:55:06.066Z,70.76
2022-12-16T17:57:53.088Z,71.04
2022-12-16T18:00:40.140Z,70.69
2022-12-16T18:03:27.013Z,70.80
2022-12-16T18:06:17.471Z,70.12
2022-12-16T18:09:04.645Z,70.18
2022-12-16T18:11:59.208Z,70.20
2022-12-16T18:14:46.260Z,69.96
2022-12-16T18:17:32.814Z,70.29
2022-12-16T18:20:19.521Z,69.70
2022-12-16T18:23:06.413Z,69.52
2022-12-16T18:26:00.592Z,69.66
2022-12-16T18:28:47.387Z,69.65
2022-12-16T18:31:34.006Z,69.83
2022-12-16T18:34:20.928Z,69.56
2022-12-16T18:37:07.715Z,69.62
2022-12-16T18:39:54.245Z,69.28
2022-12-16T18:42:41.128Z,69.60
2022-12-16T18:45:28.659Z,69.01
2022-12-16T18:48:15.412Z,69.40
2022-12-16T18:51:01.929Z,68.76
2022-12-16T18:53:48.648Z,68.93
2022-12-16T18:56:35.532Z,68.59
2022-12-16T18:59:22.096Z,68.56
2022-12-16T19:02:08.935Z,68.56
2022-12-16T19:04:55.689Z,68.44
2022-12-16T19:07:42.527Z,68.12
2022-12-16T19:10:29.460Z,68.26
2022-12-16T19:13:17.461Z,67.91
2022-12-16T19:16:16.724Z,67.72
2022-12-16T19:19:03.681Z,67.67
2022-12-16T19:24:57.286Z,67.46
2022-12-16T19:27:44.202Z,67.18
2022-12-16T19:30:30.981Z,67.55
2022-12-16T19:33:17.741Z,67.07
2022-12-16T19:36:04.266Z,66.69
2022-12-16T19:38:52.714Z,66.57
2022-12-16T19:41:43.201Z,66.54
2022-12-16T19:44:29.591Z,65.73
2022-12-16T19:47:16.116Z,65.54
2022-12-16T19:50:02.865Z,65.38
2022-12-16T19:52:49.394Z,64.83
2022-12-16T19:55:36.134Z,64.89
2022-12-16T19:58:22.962Z,64.54
2022-12-16T20:01:09.821Z,64.45
2022-12-16T20:03:56.895Z,64.39
2022-12-16T20:06:43.757Z,64.18
2022-12-16T20:09:30.412Z,64.06
2022-12-16T20:12:17.407Z,63.59
2022-12-16T20:15:04.179Z,63.07
2022-12-16T20:17:51.759Z,63.12
2022-12-16T20:20:38.746Z,62.97
2022-12-16T20:23:25.461Z,62.75
2022-12-16T20:26:20.496Z,62.60
2022-12-16T20:29:07.517Z,61.75
2022-12-16T20:31:55.894Z,61.83
2022-12-16T20:34:43.119Z,61.58
2022-12-16T20:37:30.027Z,61.46
2022-12-16T20:40:16.722Z,61.28
2022-12-16T20:43:03.291Z,61.44
2022-12-16T20:45:50.023Z,61.19
2022-12-16T20:48:36.881Z,60.65
2022-12-16T20:51:26.845Z,60.76
2022-12-16T20:54:14.649Z,61.07
2022-12-16T20:57:01.535Z,60.69
2022-12-16T20:59:48.252Z,59.77
2022-12-16T21:02:35.046Z,59.71
2022-12-16T21:05:22.339Z,59.31
2022-12-16T21:08:08.837Z,59.50
2022-12-16T21:10:56.470Z,59.39
2022-12-16T21:13:43.668Z,59.05
2022-12-16T21:16:30.371Z,58.85
2022-12-16T21:19:34.367Z,57.64
2022-12-16T21:22:21.041Z,57.97
2022-12-16T21:25:07.922Z,58.36
2022-12-16T21:27:55.490Z,58.29
2022-12-16T21:30:42.320Z,56.85
2022-12-16T21:33:39.605Z,57.36
2022-12-16T21:36:26.756Z,57.08
2022-12-16T21:39:13.153Z,57.36
2022-12-16T21:41:59.604Z,56.65
2022-12-16T21:44:46.136Z,56.49
2022-12-16T21:47:32.408Z,56.34
2022-12-16T21:50:18.955Z,56.30
2022-12-16T21:53:07.876Z,56.25
2022-12-16T21:56:11.449Z,55.81
2022-12-16T21:58:58.072Z,55.67
2022-12-16T22:01:44.906Z,55.06
2022-12-16T22:04:31.756Z,55.34
2022-12-16T22:07:18.516Z,54.96
2022-12-16T22:10:05.778Z,54.47
2022-12-16T22:12:56.302Z,54.90
2022-12-16T22:15:43.444Z,54.33
2022-12-16T22:18:30.220Z,54.09
2022-12-16T22:21:22.332Z,54.18
2022-12-16T22:24:09.334Z,54.16
2022-12-16T22:26:56.533Z,53.87
2022-12-16T22:29:43.238Z,54.28
2022-12-16T22:32:29.801Z,54.14
2022-12-16T22:35:16.407Z,54.38
2022-12-16T22:38:03.347Z,54.23
2022-12-16T22:40:49.840Z,54.26
2022-12-16T22:43:36.591Z,54.40
2022-12-16T22:46:23.929Z,54.32
2022-12-16T22:49:10.456Z,53.15
2022-12-16T22:51:57.036Z,53.67
2022-12-16T22:54:43.601Z,53.41
2022-12-16T22:57:30.135Z,53.36
2022-12-16T23:00:16.698Z,54.03
2022-12-16T23:03:03.527Z,53.89
2022-12-16T23:05:50.175Z,54.20
2022-12-16T23:08:36.811Z,54.18
2022-12-16T23:11:23.306Z,54.20
2022-12-16T23:14:09.953Z,52.37
2022-12-16T23:16:56.600Z,53.36
2022-12-16T23:19:43.581Z,53.32
2022-12-16T23:22:30.034Z,53.68
2022-12-16T23:25:16.565Z,53.62
2022-12-16T23:28:03.608Z,53.78
2022-12-16T23:30:50.540Z,53.43
2022-12-16T23:33:37.554Z,53.54
2022-12-16T23:36:25.044Z,53.23
2022-12-16T23:39:12.098Z,53.36
2022-12-16T23:41:59.127Z,53.74
2022-12-16T23:44:46.991Z,53.56
2022-12-16T23:47:35.125Z,53.61
2022-12-16T23:50:21.701Z,53.58
2022-12-16T23:53:08.882Z,53.41
2022-12-16T23:55:56.410Z,53.79
2022-12-16T23:58:43.097Z,54.78
